Station: Oodnadatta

  Atmospheric Gas Attenuation - ITU Rec 676-11   --------------- db/100km ---------------
Date Time Temp RH % AH g/m3 Dew Point Wind Direction Speed kph Gust kph Barometer mB Rainfall Since 9am 24GHz 47GHz 76GHz 122GHz 134GHz 241GHz
21 18:50 23 14 2.88 -5.9 17 19 1013.3 0 7.3 16.0 17.4 44.5 27.6 90.6
21 18:40 23.4 14 2.94 -5.6 20 24 1013.2 0 7.4 16.0 17.4 44.8 28.0 92.2
21 18:30 23.5 13 2.75 -6.5 22 33 1012.9 0 7.0 15.8 16.9 43.3 26.2 85.8
21 18:20 24 13 2.83 -6.1 24 28 1013 0 7.1 15.8 17.0 43.6 26.8 87.9
21 18:10 24.3 12 2.66 -6.9 30 35 1012.8 0 6.8 15.5 16.5 42.2 25.1 82.1
21 18:00 24.6 12 2.7 -6.7 26 35 1012.4 0 6.9 15.5 16.5 42.3 25.4 83.1
21 17:50 24.9 11 2.52 -7.5 28 33 1012.5 0 6.5 15.3 16.0 40.9 23.7 77.1
21 17:40 25.2 11 2.56 -7.3 24 32 1012.4 0 6.6 15.3 16.0 41.0 24.0 78.1
21 17:30 25.3 11 2.58 -7.2 28 41 1012 0 6.6 15.3 16.1 41.1 24.1 78.6
21 17:20 25.4 11 2.59 -7.2 28 32 1012.2 0 6.6 15.3 16.1 41.1 24.2 78.9
21 17:10 25.4 11 2.59 -7.2 28 32 1012.1 0 6.6 15.3 16.1 41.1 24.2 78.9
21 17:00 25.9 11 2.66 -6.8 28 39 1011.6 0 6.7 15.2 16.2 41.4 24.6 80.6
21 16:50 25.9 11 2.66 -6.8 32 37 1011.8 0 6.7 15.3 16.2 41.4 24.6 80.6
21 16:40 25.7 11 2.63 -6.9 20 24 1011.8 0 6.7 15.2 16.1 41.3 24.4 79.8
21 16:30 25.9 11 2.66 -6.8 30 41 1011.3 0 6.7 15.2 16.1 41.3 24.6 80.5
21 16:20 25.7 11 2.63 -6.9 24 28 1011.5 0 6.7 15.2 16.1 41.2 24.4 79.8
21 16:10 26.2 11 2.71 -6.5 37 46 1011.3 0 6.8 15.2 16.2 41.6 25.0 81.8
21 16:00 25.8 11 2.65 -6.9 30 44 1011 0 6.7 15.2 16.1 41.3 24.6 80.3
21 15:50 26.1 11 2.69 -6.6 35 46 1011.2 0 6.8 15.2 16.2 41.5 24.8 81.3
21 15:40 26 11 2.68 -6.7 33 35 1011.2 0 6.8 15.2 16.2 41.4 24.8 81.1
21 15:30 26.5 12 3 -5.2 24 41 1011 0 7.4 15.5 16.9 43.5 27.5 90.7
21 15:20 25.9 11 2.66 -6.8 33 41 1011.4 0 6.7 15.2 16.1 41.4 24.6 80.5
21 15:10 25.7 12 2.87 -5.8 30 32 1011.5 0 7.2 15.5 16.8 43.0 26.6 87.4
21 15:00 26 11 2.68 -6.7 30 41 1011.1 0 6.8 15.2 16.2 41.4 24.8 81.1
21 14:50 26.5 12 3 -5.2 24 28 1011.6 0 7.4 15.5 17.0 43.5 27.5 90.7
21 14:40 25.7 12 2.87 -5.8 30 33 1011.6 0 7.2 15.5 16.8 43.0 26.6 87.4
21 14:30 25.3 12 2.81 -6.1 32 44 1011.5 0 7.1 15.5 16.7 42.7 26.2 85.9
21 14:20 26.1 12 2.94 -5.5 32 35 1011.8 0 7.3 15.5 16.9 43.3 27.1 89.2
21 14:10 25.3 12 2.81 -6.1 28 33 1012.1 0 7.1 15.5 16.7 42.8 26.2 85.9
21 14:00 25.5 12 2.84 -6 32 44 1011.8 0 7.1 15.5 16.7 42.9 26.4 86.7
21 13:50 24.8 12 2.73 -6.5 33 41 1012.3 0 6.9 15.5 16.6 42.4 25.6 83.9
21 13:40 24.8 13 2.96 -5.5 30 39 1012.5 0 7.4 15.8 17.2 44.1 27.7 91.3
21 13:30 24.5 14 3.13 -4.7 22 35 1012.3 0 7.7 16.0 17.7 45.6 29.4 97.1
21 13:20 25.6 14 3.33 -3.8 28 32 1012.7 0 8.1 16.1 18.1 46.5 30.8 102.4
21 13:10 25 13 2.99 -5.3 30 35 1012.9 0 7.4 15.8 17.3 44.3 27.9 92.1
21 13:00 24.4 14 3.12 -4.8 22 35 1012.8 0 7.7 16.0 17.7 45.6 29.3 96.9
21 12:50 24.2 15 3.3 -4 20 26 1013.3 0 8.1 16.3 18.3 47.1 31.1 103.1
21 12:40 23.7 14 2.99 -5.3 22 28 1013.5 0 7.5 16.0 17.5 45.0 28.4 93.5
21 12:30 23.4 15 3.15 -4.7 28 39 1013.2 0 7.8 16.2 18.0 46.4 30.0 99.1
21 12:20 23.5 15 3.17 -4.6 30 33 1013.6 0 7.9 16.3 18.1 46.5 30.1 99.7
21 12:10 23.4 15 3.15 -4.7 19 32 1013.8 0 7.8 16.3 18.1 46.4 30.0 99.2
21 12:00 23.6 15 3.19 -4.5 24 37 1013.6 0 7.9 16.3 18.1 46.6 30.3 100.2
21 11:50 23.3 15 3.14 -4.8 19 24 1014.2 0 7.8 16.3 18.1 46.4 29.9 99.0
21 11:40 23.2 16 3.33 -4 24 33 1014.4 0 8.2 16.5 18.6 47.9 31.8 105.5
21 11:30 22.1 15 2.93 -5.7 28 37 1014.1 0 7.4 16.2 17.7 45.4 28.4 93.3
21 11:20 22.6 16 3.21 -4.5 30 37 1014.4 0 8.0 16.5 18.4 47.3 30.8 102.2
21 11:10 22.4 16 3.18 -4.6 15 22 1014.6 0 7.9 16.5 18.4 47.2 30.6 101.4
21 11:00 22 16 3.11 -4.9 26 35 1014.4 0 7.8 16.5 18.2 46.9 30.1 99.5
21 10:50 22.2 16 3.14 -4.8 22 26 1014.8 0 7.8 16.5 18.3 47.0 30.3 100.3
21 10:40 21.6 16 3.03 -5.3 20 26 1014.8 0 7.6 16.5 18.1 46.5 29.5 97.3
21 10:30 22.1 17 3.32 -4.1 20 33 1014.5 0 8.2 16.7 18.8 48.5 32.1 106.5
21 10:20 21.2 18 3.34 -4 28 35 1014.8 0 8.3 16.9 19.1 49.2 32.6 108.3
21 10:10 21.2 18 3.34 -4 26 30 1014.8 0 8.3 16.9 19.1 49.2 32.6 108.3
21 10:00 20.7 18 3.24 -4.4 24 33 1014.6 0 8.1 16.9 18.9 48.7 31.9 105.5
21 09:50 20.9 19 3.46 -3.6 28 30 1014.8 0 8.5 17.1 19.5 50.3 33.9 112.9
21 09:40 20.9 19 3.46 -3.6 20 24 1014.9 0 8.5 17.1 19.5 50.3 33.9 112.9
21 09:30 20 21 3.63 -3 15 24 1014.6 0 8.9 17.5 20.2 52.2 36.0 120.0
21 09:20 19.7 23 3.91 -2 13 15 1014.9 0 9.5 17.9 21.2 54.7 39.0 130.4
21 09:10 19.5 24 4.03 -1.6 15 17 1014.9 0 9.7 18.1 21.6 55.8 40.3 135.1
21 09:00 19.3 25 4.15 -1.2 15 19 1014.5 0 10.0 18.2 22.0 56.9 41.6 139.7
21 08:50 19.2 27 4.45 -0.2 15 19 1014.7 0 10.6 18.6 23.0 59.5 44.8 150.9
21 08:40 18.9 27 4.37 -0.5 15 19 1014.5 0 10.5 18.6 22.8 59.0 44.1 148.4
21 08:30 18.7 27 4.32 -0.7 17 19 1014 0 10.4 18.5 22.7 58.7 43.6 146.9
21 08:20 18.3 28 4.38 -0.5 17 19 1014.2 0 10.5 18.7 23.0 59.5 44.5 149.8
21 08:10 17.9 28 4.27 -0.8 17 19 1014 0 10.3 18.6 22.7 58.9 43.5 146.4
21 08:00 17.5 28 4.17 -1.2 17 20 1013.5 0 10.1 18.6 22.5 58.2 42.7 143.3
21 07:50 17.2 28 4.1 -1.4 20 22 1013.8 0 9.9 18.5 22.4 57.9 42.1 141.3
21 07:40 16.7 29 4.12 -1.4 15 19 1013.6 0 10.0 18.7 22.6 58.4 42.6 142.9
21 07:30 16.1 31 4.25 -1 13 17 1013.2 0 10.3 18.9 23.1 59.9 44.3 148.8
21 07:20 15.4 33 4.34 -0.8 13 15 1013.4 0 10.5 19.2 23.6 61.2 45.6 153.5
21 07:10 14.8 35 4.43 -0.5 11 13 1013.4 0 10.7 19.5 24.1 62.5 47.0 158.1
21 07:00 14.2 37 4.52 -0.3 9 11 1013 0 10.9 19.7 24.6 63.7 48.3 162.7
21 06:50 13.8 37 4.41 -0.6 9 9 1013.2 0 10.7 19.6 24.3 63.1 47.3 159.2
21 06:40 13.9 37 4.44 -0.5 11 13 1013.1 0 10.8 19.6 24.4 63.2 47.6 160.2
21 06:30 14.1 36 4.37 -0.7 13 19 1012.7 0 10.6 19.5 24.1 62.4 46.7 157.0
21 06:20 14.2 37 4.52 -0.3 15 15 1012.8 0 10.9 19.7 24.6 63.7 48.3 162.7
21 06:10 14.3 37 4.55 -0.2 15 15 1012.7 0 11.0 19.7 24.6 63.9 48.6 163.7
21 06:00 14.5 37 4.6 0 15 17 1012.3 0 11.1 19.7 24.7 64.2 49.0 165.2
21 05:50 14.7 36 4.53 -0.2 15 15 1012.6 0 10.9 19.6 24.4 63.4 48.1 162.1
21 05:40 15 34 4.36 -0.7 13 13 1012.5 0 10.6 19.3 23.8 61.6 46.0 154.9
21 05:30 15.4 33 4.34 -0.8 13 17 1012 0 10.5 19.2 23.6 61.1 45.6 153.3
21 05:20 15.7 33 4.42 -0.5 13 17 1012.2 0 10.7 19.2 23.8 61.6 46.3 155.8
21 05:10 16 32 4.36 -0.7 15 17 1011.9 0 10.5 19.1 23.5 60.9 45.5 152.9
21 04:50 16.5 32 4.49 -0.2 20 22 1011.5 0 10.8 19.1 23.7 61.6 46.6 156.9
21 04:40 16.6 33 4.66 0.3 20 24 1011.4 0 11.1 19.3 24.3 63.0 48.3 163.2
21 04:30 16.8 34 4.86 0.9 20 28 1011 0 11.6 19.5 24.9 64.6 50.4 170.4
21 04:20 17.1 33 4.8 0.7 22 24 1011.2 0 11.4 19.4 24.6 63.8 49.6 167.5
21 04:10 17.2 34 4.98 1.2 22 28 1011 0 11.8 19.6 25.1 65.3 51.4 174.2
21 04:00 17.5 34 5.07 1.5 28 37 1010.5 0 12.0 19.7 25.3 65.8 52.2 176.9
21 03:50 17.6 35 5.25 2 28 32 1010.6 0 12.3 19.9 25.9 67.4 54.1 183.7
21 03:40 17.8 35 5.31 2.2 30 32 1010.5 0 12.5 19.9 26.0 67.7 54.6 185.5
21 03:30 18 36 5.53 2.7 30 37 1010.3 0 12.9 20.2 26.7 69.5 56.9 193.6
21 03:20 18.3 37 5.78 3.4 35 37 1010.3 0 13.4 20.4 27.4 71.5 59.5 202.6
21 03:10 18.5 40 6.33 4.7 32 37 1010.2 0 14.6 21.2 29.2 76.3 65.5 223.8
21 03:00 18.8 42 6.76 5.6 37 44 1010 0 15.5 21.7 30.6 80.0 70.2 240.2
21 02:50 19.2 43 7.09 6.3 37 50 1009.7 0 16.2 22.0 31.6 82.7 73.6 252.3
21 02:40 19.3 46 7.63 7.4 32 39 1009.9 0 17.3 22.8 33.5 87.7 79.8 274.1
21 02:30 19.4 46 7.67 7.5 24 32 1009.5 0 17.4 22.8 33.6 87.9 80.2 275.3
21 02:20 19.6 46 7.76 7.7 24 28 1009.7 0 17.5 22.9 33.8 88.6 81.0 278.4
21 02:10 19.7 45 7.64 7.4 22 24 1009.5 0 17.3 22.7 33.3 87.3 79.5 273.1

Last Refresh: 21-Sep-2020 19:01:31

Most of the information presented on this site is sourced from the Bureau of Meteorology.  Copyright in all material sourced from the Bureau of Meteorology resides with the Commonwealth of Australia.